VVKP weather

Kep Air Base
Kep, Bac Giang Province, Vietnam

Public forecast

Using degrees Celsius for public forecast. Weather courtesy of forecast.io.

METAR (pilot weather report)

Closest report is Noi Bai International Airport, 27.4 nm (50.8 km) WSW. Retrieved 2019/04/26 03:30 UTC (0 seconds ago):

VVNB 260330Z 15009KT 9999 FEW016 BKN022 31/24 Q1009 NOSIG

TAF (pilot weather forecast)

Forecast is more than 12 hours old.

Closest forecast is Noi Bai International Airport, 27.4 nm (50.8 km) WSW. Retrieved 2019/04/25 00:37 UTC (1 day ago):

TAF VVNB 252300Z 2600/2624 09006KT 7000 SCT015 TEMPO 2609/2615 21015G28KT 2500 +TSRA BKN010 FEW027CB